Time;durP1;ratioP1;P1;durP2;ratioP2;P2;SDS_P1;SDS_P2;PMS_P1;PMS_P2;Temp;Humidity;BMP_temperature;BMP_pressure;BME280_temperature;BME280_humidity;BME280_pressure;Samples;Min_cycle;Max_cycle;Signal;HPM_P1;HPM_P2
2024/01/01 00:01:44;;;;;;;6.13;5.30;;;;;;;19.91;52.25;96784.53;5014247;28;20222;-26
2024/01/01 00:04:11;;;;;;;6.70;5.37;;;;;;;19.90;52.42;96767.50;5014269;28;20229;-26
2024/01/01 00:06:37;;;;;;;6.17;5.20;;;;;;;19.91;52.41;96760.72;5009732;28;20209;-28
2024/01/01 00:09:04;;;;;;;7.80;5.77;;;;;;;19.88;52.04;96753.00;5013000;28;20631;-26
2024/01/01 00:11:30;;;;;;;7.23;5.30;;;;;;;19.91;52.13;96756.50;5014119;28;20289;-26
2024/01/01 00:13:57;;;;;;;6.27;5.20;;;;;;;19.91;52.54;96765.81;5014295;28;20221;-26
2024/01/01 00:16:24;;;;;;;7.23;5.70;;;;;;;19.91;52.09;96763.28;5013620;28;20217;-29
2024/01/01 00:18:51;;;;;;;6.70;5.40;;;;;;;19.91;52.41;96755.63;5010002;28;20300;-28
2024/01/01 00:21:18;;;;;;;6.93;5.40;;;;;;;19.89;52.21;96749.63;5009196;28;20221;-27
2024/01/01 00:23:44;;;;;;;7.90;5.80;;;;;;;19.92;52.40;96753.13;5012985;28;20589;-28
2024/01/01 00:26:11;;;;;;;8.80;5.93;;;;;;;19.92;52.44;96757.34;5011453;28;20241;-29
2024/01/01 00:28:38;;;;;;;7.13;5.57;;;;;;;19.91;52.32;96753.06;5012454;28;20388;-26
2024/01/01 00:31:04;;;;;;;7.97;5.70;;;;;;;19.92;52.26;96750.56;5013120;28;20198;-25
2024/01/01 00:33:31;;;;;;;7.47;5.70;;;;;;;19.92;52.13;96755.66;5012751;28;20670;-24
2024/01/01 00:35:58;;;;;;;5.57;5.03;;;;;;;19.90;52.14;96744.56;5012507;28;20205;-25
2024/01/01 00:38:24;;;;;;;6.60;5.50;;;;;;;19.91;52.53;96760.72;5012055;28;20645;-25
2024/01/01 00:40:51;;;;;;;5.40;4.90;;;;;;;19.94;52.30;96758.25;5010036;28;20226;-26
2024/01/01 00:43:17;;;;;;;6.53;5.63;;;;;;;19.93;52.32;96754.81;5007607;28;20202;-25
2024/01/01 00:45:44;;;;;;;7.33;5.10;;;;;;;19.93;52.21;96747.19;5004576;28;20238;-25
2024/01/01 00:48:16;;;;;;;6.57;5.67;;;;;;;19.92;52.16;96758.22;5010213;28;20598;-25
2024/01/01 00:50:44;;;;;;;7.13;5.43;;;;;;;19.94;51.97;96753.16;5011080;28;20245;-25
2024/01/01 00:53:11;;;;;;;8.40;5.67;;;;;;;19.94;52.31;96758.25;5012492;28;20210;-26
2024/01/01 00:55:38;;;;;;;6.93;5.57;;;;;;;19.93;52.04;96771.84;5011450;28;20199;-25
2024/01/01 00:58:06;;;;;;;9.67;5.43;;;;;;;19.94;52.24;96758.25;5012072;28;20199;-25
2024/01/01 01:00:34;;;;;;;6.07;5.27;;;;;;;19.94;52.17;96765.91;5011905;28;20595;-26
2024/01/01 01:03:00;;;;;;;7.53;5.80;;;;;;;19.94;52.30;96764.22;5010462;28;20202;-26
2024/01/01 01:05:27;;;;;;;6.70;5.87;;;;;;;19.94;52.16;96771.88;5012344;28;20585;-25
2024/01/01 01:07:54;;;;;;;5.63;4.87;;;;;;;19.94;52.20;96764.22;5012239;28;20622;-25
2024/01/01 01:10:20;;;;;;;5.80;5.20;;;;;;;19.94;52.13;96773.56;5008620;28;20257;-25
2024/01/01 01:12:47;;;;;;;5.57;5.03;;;;;;;19.93;52.18;96770.13;5010348;28;20735;-25
2024/01/01 01:15:13;;;;;;;8.40;5.67;;;;;;;19.93;52.22;96772.69;5012020;28;20252;-25
2024/01/01 01:17:40;;;;;;;5.80;5.20;;;;;;;19.94;52.06;96778.66;5012160;28;20257;-25
2024/01/01 01:20:07;;;;;;;5.63;5.03;;;;;;;19.95;52.05;96777.81;5012018;28;20218;-26
2024/01/01 01:22:34;;;;;;;6.17;5.20;;;;;;;19.95;51.58;96780.38;5011363;28;20218;-25
2024/01/01 01:25:01;;;;;;;7.53;5.70;;;;;;;19.94;51.94;96774.41;5011934;28;20216;-24
2024/01/01 01:27:27;;;;;;;7.50;5.83;;;;;;;19.96;52.36;96764.25;5010087;28;20241;-25
2024/01/01 01:29:54;;;;;;;6.80;5.30;;;;;;;19.94;52.33;96761.66;5011036;28;20284;-26
2024/01/01 01:32:20;;;;;;;7.07;5.67;;;;;;;19.93;52.34;96762.47;5011296;28;20202;-25
2024/01/01 01:34:47;;;;;;;6.87;5.00;;;;;;;19.92;52.30;96765.88;5008542;28;20206;-25
2024/01/01 01:37:15;;;;;;;5.57;5.07;;;;;;;19.92;52.30;96772.63;5011930;28;20641;-27
2024/01/01 01:39:41;;;;;;;5.83;5.07;;;;;;;19.91;52.18;96766.69;5008805;28;20775;-25
2024/01/01 01:42:08;;;;;;;6.60;5.60;;;;;;;19.90;52.26;96772.59;5010889;28;20240;-26
2024/01/01 01:44:35;;;;;;;6.60;5.57;;;;;;;19.91;52.19;96771.81;5011662;28;20206;-25
2024/01/01 01:47:01;;;;;;;6.27;5.37;;;;;;;19.91;51.99;96778.56;5011517;28;20277;-26
2024/01/01 01:49:28;;;;;;;5.47;4.97;;;;;;;19.90;52.29;96790.44;5009646;28;20232;-23
2024/01/01 01:51:55;;;;;;;5.70;5.20;;;;;;;19.87;52.10;96776.78;5006169;28;20198;-25
2024/01/01 01:54:21;;;;;;;7.00;5.70;;;;;;;19.90;52.12;96780.25;4994458;28;20203;-25
2024/01/01 01:56:48;;;;;;;6.30;5.67;;;;;;;19.90;52.30;96777.69;5011833;28;20209;-26
2024/01/01 01:59:15;;;;;;;7.53;5.57;;;;;;;19.89;52.29;96776.00;5006232;28;20214;-25
2024/01/01 02:01:41;;;;;;;5.57;5.07;;;;;;;19.89;52.29;96781.09;5004935;28;20250;-25
2024/01/01 02:04:08;;;;;;;5.83;5.23;;;;;;;19.89;52.35;96777.66;4990549;28;20206;-25
2024/01/01 02:06:34;;;;;;;6.07;5.13;;;;;;;19.90;52.38;96771.75;5018426;28;20211;-25
2024/01/01 02:09:01;;;;;;;6.37;5.73;;;;;;;19.90;52.11;96771.75;5011554;28;20257;-25
2024/01/01 02:11:27;;;;;;;6.80;6.10;;;;;;;19.90;52.28;96762.41;5006568;28;20228;-26
2024/01/01 02:14:06;;;;;;;6.17;5.57;;;;;;;19.91;52.11;96758.19;5009907;28;21722;-26
2024/01/01 02:16:33;;;;;;;6.83;5.90;;;;;;;19.90;52.25;96749.66;5011223;28;20253;-25
2024/01/01 02:19:00;;;;;;;5.53;4.97;;;;;;;19.88;52.30;96750.47;5002583;28;20218;-25
2024/01/01 02:21:27;;;;;;;5.63;5.03;;;;;;;19.90;52.32;96752.19;5008976;28;20727;-25
2024/01/01 02:23:55;;;;;;;6.47;5.27;;;;;;;19.91;52.19;96755.63;5011139;28;20695;-25
2024/01/01 02:26:21;;;;;;;6.40;5.23;;;;;;;19.91;52.10;96750.53;5010458;28;20236;-25
2024/01/01 02:28:48;;;;;;;5.87;5.10;;;;;;;19.92;52.09;96755.66;5008041;28;20277;-25
2024/01/01 02:31:15;;;;;;;6.27;5.47;;;;;;;19.91;52.18;96751.41;5010667;28;20281;-25
2024/01/01 02:33:41;;;;;;;5.87;5.27;;;;;;;19.91;52.23;96746.31;5011135;28;20210;-25
2024/01/01 02:36:11;;;;;;;6.80;5.93;;;;;;;19.92;51.99;96744.59;5011044;28;20238;-26
2024/01/01 02:38:38;;;;;;;5.97;5.23;;;;;;;19.93;52.09;96753.97;5011190;28;20257;-25
2024/01/01 02:41:04;;;;;;;6.80;5.33;;;;;;;19.92;52.26;96753.13;5005779;28;20640;-25
2024/01/01 02:43:31;;;;;;;5.93;5.33;;;;;;;19.89;52.15;96747.94;5005936;28;20206;-25
2024/01/01 02:45:57;;;;;;;5.43;4.93;;;;;;;19.91;52.06;96745.44;4992921;28;20248;-26
2024/01/01 02:48:24;;;;;;;5.33;4.83;;;;;;;19.91;52.14;96743.75;5010177;28;20577;-26
2024/01/01 02:50:50;;;;;;;5.40;4.80;;;;;;;19.92;52.00;96748.00;5010700;28;20311;-26
2024/01/01 02:53:17;;;;;;;6.10;5.37;;;;;;;19.92;51.89;96758.22;5011075;28;20293;-25
2024/01/01 02:55:44;;;;;;;5.33;4.77;;;;;;;19.94;51.88;96760.78;5010836;28;20685;-25
2024/01/01 02:58:11;;;;;;;6.77;4.67;;;;;;;19.94;52.04;96753.16;5011319;28;20583;-25
2024/01/01 03:00:38;;;;;;;5.87;5.30;;;;;;;19.94;51.95;96758.25;5010760;28;20198;-26
2024/01/01 03:03:04;;;;;;;5.87;5.17;;;;;;;19.95;51.78;96762.50;5010049;28;20222;-25
2024/01/01 03:05:31;;;;;;;5.93;5.33;;;;;;;19.94;51.94;96754.03;5010578;28;20210;-24
2024/01/01 03:07:58;;;;;;;6.43;5.33;;;;;;;19.95;51.78;96754.84;5010443;28;20333;-25
2024/01/01 03:10:24;;;;;;;6.97;5.37;;;;;;;19.95;51.76;96750.63;5010977;28;20277;-25
2024/01/01 03:12:51;;;;;;;5.27;4.70;;;;;;;19.95;51.84;96750.63;5007581;28;20198;-25
2024/01/01 03:15:18;;;;;;;6.40;5.03;;;;;;;19.96;52.06;96749.78;5010935;28;20237;-25
2024/01/01 03:17:45;;;;;;;5.67;4.93;;;;;;;19.96;52.02;96744.69;5010221;28;20245;-25
2024/01/01 03:20:12;;;;;;;5.63;5.03;;;;;;;19.74;51.88;96708.47;5012510;28;20214;-25
2024/01/01 03:22:38;;;;;;;5.33;4.73;;;;;;;19.96;52.17;96743.84;5012913;28;20328;-25
2024/01/01 03:25:07;;;;;;;5.27;4.77;;;;;;;19.95;52.10;96749.75;5013835;28;20691;-25
2024/01/01 03:27:35;;;;;;;5.97;5.37;;;;;;;19.94;52.14;96751.47;5012996;28;20206;-25
2024/01/01 03:30:05;;;;;;;5.40;4.90;;;;;;;19.94;52.13;96756.56;5013543;28;20231;-25
2024/01/01 03:32:33;;;;;;;5.33;4.83;;;;;;;19.95;52.13;96742.09;5011049;28;20265;-24
2024/01/01 03:35:00;;;;;;;5.30;4.70;;;;;;;19.94;52.42;96745.50;5013153;28;20205;-25
2024/01/01 03:37:26;;;;;;;5.30;4.80;;;;;;;19.93;52.24;96741.25;5008620;28;20305;-25
2024/01/01 03:39:53;;;;;;;5.30;4.80;;;;;;;19.94;52.05;96733.63;5013749;28;20226;-25
2024/01/01 03:42:20;;;;;;;5.47;4.97;;;;;;;19.94;51.89;96746.38;5013762;28;20257;-25
2024/01/01 03:44:46;;;;;;;5.17;4.67;;;;;;;19.94;52.18;96745.50;5014031;28;20195;-25
2024/01/01 03:47:13;;;;;;;5.33;4.80;;;;;;;19.89;52.02;96745.38;5013677;28;20622;-26
2024/01/01 03:49:40;;;;;;;5.63;4.80;;;;;;;19.94;52.58;96753.16;5012426;28;20218;-25
2024/01/01 03:52:07;;;;;;;5.00;4.50;;;;;;;19.93;52.07;96736.97;5013394;28;20297;-25
2024/01/01 03:54:34;;;;;;;4.70;4.30;;;;;;;19.95;52.31;96739.56;5013869;28;20242;-25
2024/01/01 03:57:00;;;;;;;5.20;4.70;;;;;;;19.95;52.02;96752.31;5013861;28;20299;-25
2024/01/01 03:59:27;;;;;;;5.23;4.73;;;;;;;19.94;52.21;96743.81;5013750;28;20276;-25
2024/01/01 04:01:53;;;;;;;5.43;4.83;;;;;;;19.93;52.49;96748.88;5011444;28;20245;-24
2024/01/01 04:04:20;;;;;;;5.30;4.80;;;;;;;19.87;52.10;96741.09;5010028;28;20631;-25
2024/01/01 04:06:47;;;;;;;5.23;4.60;;;;;;;19.95;52.07;96750.63;5013498;28;20234;-25
2024/01/01 04:09:13;;;;;;;5.67;4.90;;;;;;;19.95;52.23;96750.63;5013303;28;20226;-25
2024/01/01 04:11:40;;;;;;;5.57;4.83;;;;;;;19.95;52.22;96742.09;5012712;28;20198;-25
2024/01/01 04:14:06;;;;;;;4.70;4.30;;;;;;;19.95;52.10;96737.00;5013613;28;20337;-26
2024/01/01 04:16:33;;;;;;;5.33;4.57;;;;;;;19.96;52.31;96741.31;5013161;28;20198;-25
2024/01/01 04:19:00;;;;;;;5.33;4.83;;;;;;;19.96;51.96;96741.31;5013152;28;20233;-25
2024/01/01 04:21:26;;;;;;;5.20;4.70;;;;;;;19.95;52.23;96753.19;5013018;28;20218;-25
2024/01/01 04:23:58;;;;;;;4.80;4.40;;;;;;;19.94;52.05;96754.03;5013122;28;20238;-24
2024/01/01 04:26:24;;;;;;;5.27;4.77;;;;;;;19.95;52.14;96757.41;5009271;28;20206;-25
2024/01/01 04:28:51;;;;;;;4.73;4.23;;;;;;;19.94;52.12;96761.66;5009846;28;20226;-26
2024/01/01 04:31:18;;;;;;;4.90;4.43;;;;;;;19.95;52.14;96760.84;5012370;28;20230;-26
2024/01/01 04:33:44;;;;;;;5.33;4.83;;;;;;;19.95;52.09;96758.28;5005781;28;20230;-26
2024/01/01 04:36:11;;;;;;;5.40;4.70;;;;;;;19.95;52.07;96765.06;5012449;28;20257;-26
2024/01/01 04:38:38;;;;;;;4.90;4.40;;;;;;;19.95;52.02;96773.59;5012454;28;20272;-25
2024/01/01 04:41:04;;;;;;;4.90;4.40;;;;;;;19.95;52.10;96776.13;5012838;28;20620;-25
2024/01/01 04:43:31;;;;;;;5.23;4.73;;;;;;;19.94;52.06;96782.06;5012687;28;20225;-24
2024/01/01 04:45:57;;;;;;;5.17;4.63;;;;;;;19.96;52.12;96784.66;5012254;28;20202;-25
2024/01/01 04:48:24;;;;;;;4.93;4.43;;;;;;;19.95;52.11;96782.91;5012674;28;20567;-25
2024/01/01 04:50:51;;;;;;;4.87;4.23;;;;;;;19.95;52.21;96798.22;5010914;28;20241;-25
2024/01/01 04:53:17;;;;;;;4.97;4.47;;;;;;;19.95;52.29;96796.53;5012490;28;20205;-25
2024/01/01 04:55:44;;;;;;;4.97;4.47;;;;;;;19.95;52.07;96796.53;5012045;28;20210;-26
2024/01/01 04:58:11;;;;;;;4.43;4.03;;;;;;;19.94;52.08;96802.47;5011862;28;20284;-25
2024/01/01 05:00:37;;;;;;;4.67;4.27;;;;;;;19.95;52.25;96803.31;5012080;28;20198;-25
2024/01/01 05:03:04;;;;;;;4.40;4.00;;;;;;;19.95;52.24;96798.22;5012315;28;20230;-25
2024/01/01 05:05:31;;;;;;;4.63;4.23;;;;;;;19.94;52.09;96791.41;5012186;28;20748;-26
2024/01/01 05:07:57;;;;;;;5.13;4.63;;;;;;;19.95;52.15;96793.13;5010508;28;20245;-25
2024/01/01 05:10:24;;;;;;;4.90;4.40;;;;;;;19.95;52.15;96796.53;5012128;28;20306;-25
2024/01/01 05:12:50;;;;;;;4.67;4.27;;;;;;;19.95;52.24;96786.34;5012519;28;20202;-24
2024/01/01 05:15:17;;;;;;;4.70;4.30;;;;;;;19.95;52.18;96791.44;5012137;28;20221;-25
2024/01/01 05:17:43;;;;;;;4.80;4.40;;;;;;;19.95;51.78;96803.31;5012387;28;20233;-25
2024/01/01 05:20:10;;;;;;;4.47;4.07;;;;;;;19.95;52.07;96790.56;5007215;28;20258;-25
2024/01/01 05:22:37;;;;;;;4.80;4.30;;;;;;;19.93;52.33;96787.97;5012067;28;20309;-25
2024/01/01 05:25:04;;;;;;;4.40;4.00;;;;;;;19.79;52.18;96771.50;5010252;28;20224;-25
2024/01/01 05:27:31;;;;;;;4.67;4.27;;;;;;;19.95;52.23;96799.09;5011845;28;20206;-24
2024/01/01 05:29:57;;;;;;;4.77;4.27;;;;;;;19.94;51.97;96804.16;5011750;28;20636;-26
2024/01/01 05:32:24;;;;;;;4.80;4.20;;;;;;;19.96;52.21;96807.59;5011904;28;20229;-25
2024/01/01 05:34:51;;;;;;;4.47;4.00;;;;;;;19.96;51.55;96805.06;5011644;28;20212;-26
2024/01/01 05:37:17;;;;;;;4.10;3.70;;;;;;;19.95;52.25;96809.28;5011805;28;20641;-25
2024/01/01 05:39:44;;;;;;;4.27;3.87;;;;;;;19.89;52.08;96795.50;5006117;28;20649;-26
2024/01/01 05:42:10;;;;;;;4.40;4.00;;;;;;;19.95;52.20;96799.09;5005197;28;20289;-26
2024/01/01 05:44:37;;;;;;;4.30;3.90;;;;;;;19.95;52.23;96801.63;5011872;28;20210;-25
2024/01/01 05:47:04;;;;;;;4.20;3.80;;;;;;;19.95;52.36;96803.31;5007970;28;20199;-25
2024/01/01 05:49:31;;;;;;;5.30;4.07;;;;;;;19.95;52.13;96810.97;5011806;28;20226;-25
2024/01/01 05:51:57;;;;;;;4.40;3.97;;;;;;;19.95;52.12;96818.63;5011518;28;20307;-25
2024/01/01 05:54:24;;;;;;;4.10;3.70;;;;;;;19.95;52.09;96819.47;5008457;28;20203;-25
2024/01/01 05:56:50;;;;;;;4.13;3.73;;;;;;;19.95;52.13;96824.59;5011802;28;20229;-25
2024/01/01 05:59:17;;;;;;;4.47;4.07;;;;;;;19.94;52.11;96822.88;5010672;28;20740;-25
2024/01/01 06:01:44;;;;;;;4.83;4.43;;;;;;;19.94;52.11;96816.91;5011215;28;20297;-25
2024/01/01 06:04:10;;;;;;;4.13;3.73;;;;;;;19.95;52.17;96826.25;5010702;28;20210;-24
2024/01/01 06:06:37;;;;;;;4.30;3.90;;;;;;;19.95;52.10;96823.72;5011539;28;20206;-24
2024/01/01 06:09:04;;;;;;;4.60;4.20;;;;;;;19.95;52.20;96813.50;5010012;28;20707;-25
2024/01/01 06:11:31;;;;;;;4.70;4.30;;;;;;;19.94;52.05;96822.00;5009624;28;20208;-25
2024/01/01 06:13:59;;;;;;;4.27;3.87;;;;;;;19.95;51.92;96821.16;5008811;28;20788;-25
2024/01/01 06:16:26;;;;;;;4.00;3.70;;;;;;;19.94;52.26;96816.91;5009250;28;20202;-26
2024/01/01 06:18:53;;;;;;;4.90;4.07;;;;;;;19.95;52.13;96828.81;5011082;28;20362;-25
2024/01/01 06:21:19;;;;;;;3.97;3.57;;;;;;;19.94;52.21;96827.97;5007031;28;20213;-26
2024/01/01 06:23:46;;;;;;;4.67;4.27;;;;;;;19.94;52.25;96833.06;5005729;28;20626;-25
2024/01/01 06:26:13;;;;;;;4.10;3.70;;;;;;;19.95;52.15;96831.38;5010098;28;20253;-24
2024/01/01 06:28:40;;;;;;;4.03;3.63;;;;;;;19.93;52.18;96835.59;5009954;28;20233;-25
2024/01/01 06:31:07;;;;;;;4.33;3.93;;;;;;;19.95;51.94;96844.13;5008902;28;20286;-28
2024/01/01 06:33:33;;;;;;;4.07;3.67;;;;;;;19.94;52.02;96848.38;5011731;28;20233;-27
2024/01/01 06:36:00;;;;;;;4.50;4.10;;;;;;;19.93;52.03;96854.28;5009623;28;20202;-26
2024/01/01 06:38:27;;;;;;;3.60;3.30;;;;;;;19.94;52.17;96861.13;5006101;28;20254;-26
2024/01/01 06:40:53;;;;;;;4.37;3.97;;;;;;;19.93;51.98;96856.00;5010916;28;20213;-29
2024/01/01 06:43:20;;;;;;;4.00;3.60;;;;;;;19.94;52.03;96857.69;5003255;28;20235;-26
2024/01/01 06:45:47;;;;;;;3.70;3.40;;;;;;;19.94;52.04;96865.34;5009055;28;20234;-26
2024/01/01 06:48:13;;;;;;;4.00;3.70;;;;;;;19.95;52.16;96869.63;5011049;28;20203;-27
2024/01/01 06:50:40;;;;;;;4.03;3.63;;;;;;;19.95;52.43;96874.72;5011271;28;20832;-30
2024/01/01 06:53:07;;;;;;;4.10;3.70;;;;;;;19.93;52.14;96867.03;5012337;28;20575;-26
2024/01/01 06:55:34;;;;;;;4.13;3.73;;;;;;;19.94;52.18;96870.44;5015139;28;20202;-26
2024/01/01 06:58:00;;;;;;;4.13;3.73;;;;;;;19.93;52.08;96872.13;5015294;28;20230;-32
2024/01/01 07:00:27;;;;;;;3.60;3.30;;;;;;;19.94;52.04;96880.66;5013426;28;20213;-26
2024/01/01 07:02:58;;;;;;;3.83;3.53;;;;;;;19.94;52.13;96878.09;5007079;28;20320;-26
2024/01/01 07:05:26;;;;;;;3.60;3.30;;;;;;;19.94;52.45;96886.63;5015005;28;20256;-36
2024/01/01 07:07:54;;;;;;;3.80;3.40;;;;;;;19.93;52.21;96892.53;5013336;28;20201;-26
2024/01/01 07:10:22;;;;;;;3.80;3.50;;;;;;;19.93;52.03;96897.63;5007489;28;20766;-27
2024/01/01 07:12:48;;;;;;;3.50;3.20;;;;;;;19.94;52.15;96901.06;5011313;28;20221;-26
2024/01/01 07:15:15;;;;;;;3.80;3.50;;;;;;;19.92;52.17;96897.59;5015144;28;20677;-27
2024/01/01 07:17:41;;;;;;;3.50;3.20;;;;;;;19.91;52.30;96901.84;5013524;28;20582;-26
2024/01/01 07:20:10;;;;;;;3.87;3.57;;;;;;;19.90;52.00;96915.41;5010588;28;20228;-26
2024/01/01 07:22:37;;;;;;;3.93;3.50;;;;;;;19.90;52.11;96912.84;5014726;28;20245;-34
2024/01/01 07:25:04;;;;;;;4.30;3.77;;;;;;;19.90;51.98;96906.91;5012414;28;20735;-27
2024/01/01 07:27:31;;;;;;;3.70;3.40;;;;;;;19.90;52.01;96912.00;5007409;28;20665;-26
2024/01/01 07:29:57;;;;;;;3.60;3.30;;;;;;;19.91;52.06;96918.81;5013461;28;20288;-28
2024/01/01 07:32:24;;;;;;;3.93;3.60;;;;;;;19.91;52.10;96921.38;5014291;28;20735;-26
2024/01/01 07:34:50;;;;;;;3.77;3.47;;;;;;;19.89;52.28;96918.78;5008752;28;20273;-26
2024/01/01 07:37:17;;;;;;;4.13;3.70;;;;;;;19.87;52.25;96924.69;5012817;28;20295;-26
2024/01/01 07:39:44;;;;;;;3.97;3.60;;;;;;;19.87;52.25;96929.78;5008679;28;20297;-27
2024/01/01 07:42:10;;;;;;;3.60;3.30;;;;;;;19.76;52.22;96918.44;5013090;28;20576;-27
2024/01/01 07:44:37;;;;;;;3.40;3.10;;;;;;;19.86;52.33;96940.78;5013105;28;20206;-26
2024/01/01 07:47:04;;;;;;;3.13;2.80;;;;;;;19.85;52.37;96941.63;5010533;28;20682;-27
2024/01/01 07:49:30;;;;;;;3.53;3.23;;;;;;;19.85;52.22;96939.06;5009859;28;20993;-27
2024/01/01 07:51:57;;;;;;;3.50;3.20;;;;;;;19.84;52.19;96943.28;5012739;28;20665;-26
2024/01/01 07:54:23;;;;;;;3.70;3.23;;;;;;;19.84;52.48;96940.75;5011209;28;20230;-26
2024/01/01 07:56:50;;;;;;;3.50;3.20;;;;;;;19.84;52.33;96945.84;5008551;28;20241;-26
2024/01/01 07:59:17;;;;;;;3.97;3.67;;;;;;;19.83;52.33;96936.47;5013969;28;20280;-27
2024/01/01 08:01:44;;;;;;;4.07;3.67;;;;;;;19.83;52.42;96949.22;5014593;28;20609;-26
2024/01/01 08:04:11;;;;;;;4.00;3.60;;;;;;;19.83;52.31;96954.31;5008997;28;20227;-29
2024/01/01 08:06:37;;;;;;;3.80;3.50;;;;;;;19.83;52.30;96956.00;5009273;28;20290;-26
2024/01/01 08:09:04;;;;;;;4.00;3.70;;;;;;;19.82;52.24;96964.47;5006397;28;20218;-26
2024/01/01 08:11:30;;;;;;;3.33;3.03;;;;;;;19.83;52.40;96953.44;5004779;28;20245;-26
2024/01/01 08:13:57;;;;;;;4.00;3.70;;;;;;;19.82;51.19;96955.16;5008204;28;20197;-27
2024/01/01 08:16:25;;;;;;;3.33;3.00;;;;;;;19.79;49.67;96939.78;5005765;28;20206;-26
2024/01/01 08:18:53;;;;;;;4.37;3.07;;;;;;;19.83;48.31;96949.22;5011538;28;20245;-28
2024/01/01 08:21:20;;;;;;;3.57;3.27;;;;;;;19.83;47.20;96953.44;5012920;28;20198;-30
2024/01/01 08:23:47;;;;;;;3.63;2.73;;;;;;;19.83;46.55;96946.69;5007375;28;20222;-26
2024/01/01 08:26:17;;;;;;;3.03;2.70;;;;;;;19.83;46.30;96949.22;5006467;28;20209;-31
2024/01/01 08:28:46;;;;;;;2.90;2.60;;;;;;;19.84;46.44;96947.53;5013130;28;20226;-26
2024/01/01 08:31:13;;;;;;;3.60;2.50;;;;;;;19.85;45.85;96956.91;5012786;28;20213;-26
2024/01/01 08:33:39;;;;;;;3.80;2.60;;;;;;;19.85;45.34;96955.25;5013223;28;20194;-26
2024/01/01 08:36:07;;;;;;;3.60;2.77;;;;;;;19.85;44.65;96952.69;5012049;28;20194;-30
2024/01/01 08:38:33;;;;;;;3.03;2.37;;;;;;;19.81;44.32;96940.66;5008570;28;20673;-26
2024/01/01 08:41:00;;;;;;;3.23;2.70;;;;;;;19.84;44.34;96942.44;5011480;28;20635;-26
2024/01/01 08:43:27;;;;;;;2.60;2.40;;;;;;;19.81;44.20;96953.41;5013446;28;20247;-26
2024/01/01 08:45:54;;;;;;;3.00;2.33;;;;;;;19.77;44.44;96951.63;5013737;28;20198;-27
2024/01/01 08:48:20;;;;;;;2.60;2.40;;;;;;;19.76;44.24;96959.22;5013562;28;20309;-28
2024/01/01 08:50:47;;;;;;;3.63;2.40;;;;;;;19.75;44.79;96948.16;5013945;28;20205;-26
2024/01/01 08:53:14;;;;;;;4.73;2.40;;;;;;;19.75;45.40;96958.34;5007695;28;20198;-27
2024/01/01 08:55:42;;;;;;;2.50;2.30;;;;;;;19.74;45.38;96959.19;5009475;28;20581;-29
2024/01/01 08:58:09;;;;;;;2.83;2.40;;;;;;;19.75;46.26;96957.50;5006135;28;20203;-33
2024/01/01 09:00:35;;;;;;;3.03;2.30;;;;;;;19.76;46.45;96956.66;5010729;28;20202;-27
2024/01/01 09:03:02;;;;;;;4.57;2.20;;;;;;;19.76;46.59;96954.13;5013106;28;20230;-26
2024/01/01 09:05:29;;;;;;;3.57;2.53;;;;;;;19.75;46.95;96960.06;5012020;28;20202;-26
2024/01/01 09:07:56;;;;;;;3.90;2.40;;;;;;;19.76;47.35;96961.78;5008649;28;20558;-27
2024/01/01 09:10:23;;;;;;;2.93;2.53;;;;;;;19.78;48.37;96960.97;5012958;28;20226;-26
2024/01/01 09:12:49;;;;;;;3.50;2.40;;;;;;;19.78;48.66;96960.97;5008966;28;20378;-26
2024/01/01 09:15:16;;;;;;;3.07;2.77;;;;;;;19.76;49.05;96952.44;5010010;28;20202;-26
2024/01/01 09:17:43;;;;;;;2.70;2.50;;;;;;;19.77;49.33;96950.75;5008602;28;20202;-26
2024/01/01 09:20:11;;;;;;;3.73;2.90;;;;;;;19.77;49.56;96955.84;5008805;28;20226;-27
2024/01/01 09:22:38;;;;;;;2.63;2.30;;;;;;;19.76;49.14;96957.53;5011935;28;20206;-29
2024/01/01 09:25:05;;;;;;;3.97;2.40;;;;;;;19.75;49.48;96955.78;5011336;28;20202;-26
2024/01/01 09:27:31;;;;;;;3.37;2.47;;;;;;;19.75;49.61;96953.25;5012659;28;20202;-28
2024/01/01 09:29:58;;;;;;;3.20;2.47;;;;;;;19.66;49.82;96935.16;5011666;28;20741;-26
2024/01/01 09:32:24;;;;;;;3.97;2.63;;;;;;;19.74;49.88;96946.44;5008784;28;20261;-27
2024/01/01 09:34:51;;;;;;;4.70;2.57;;;;;;;19.74;49.94;96959.19;5008149;28;20195;-26
2024/01/01 09:37:18;;;;;;;2.77;2.53;;;;;;;19.74;49.96;96960.84;5009353;28;20581;-26
2024/01/01 09:39:44;;;;;;;3.13;2.20;;;;;;;19.74;49.92;96956.63;5007491;28;20250;-28
2024/01/01 09:42:11;;;;;;;3.37;2.27;;;;;;;19.74;49.96;96956.63;5012280;28;20206;-31
2024/01/01 09:44:38;;;;;;;2.90;2.47;;;;;;;19.73;50.10;96962.56;5010981;28;20246;-26
2024/01/01 09:47:05;;;;;;;5.93;2.53;;;;;;;19.68;50.11;96950.50;5010669;28;20210;-26
2024/01/01 09:49:32;;;;;;;2.77;2.47;;;;;;;19.73;50.02;96956.59;5013225;28;20313;-26
2024/01/01 09:51:59;;;;;;;3.77;2.60;;;;;;;19.64;50.05;96946.13;5009305;28;20551;-26
2024/01/01 09:54:25;;;;;;;2.40;2.20;;;;;;;19.73;50.17;96960.00;5010933;28;20190;-29
2024/01/01 09:56:52;;;;;;;2.40;2.20;;;;;;;19.73;50.04;96962.56;5007743;28;20198;-26
2024/01/01 09:59:37;;;;;;;3.00;2.70;;;;;;;19.73;50.16;96956.59;5008387;28;20244;-26
2024/01/01 10:02:05;;;;;;;2.43;2.23;;;;;;;19.73;50.55;96956.59;5002190;28;20619;-26
2024/01/01 10:04:32;;;;;;;2.63;2.40;;;;;;;19.73;50.47;96951.50;5012898;28;20626;-27
2024/01/01 10:06:59;;;;;;;2.40;2.20;;;;;;;19.72;50.54;96949.78;5005654;28;20608;-26
2024/01/01 10:09:26;;;;;;;2.70;2.33;;;;;;;19.71;50.38;96945.47;5006957;28;20276;-28
2024/01/01 10:12:05;;;;;;;3.07;2.40;;;;;;;19.73;50.49;96946.38;5001037;28;20198;-26
2024/01/01 10:14:31;;;;;;;2.97;2.23;;;;;;;19.74;50.30;96951.53;5006851;28;20676;-26
2024/01/01 10:17:10;;;;;;;2.60;2.40;;;;;;;19.75;50.35;96945.59;5004321;28;20206;-29
2024/01/01 10:19:55;;;;;;;3.20;2.30;;;;;;;19.76;50.42;96946.47;5012309;28;20226;-26
2024/01/01 10:22:23;;;;;;;2.20;2.00;;;;;;;19.76;50.27;96949.91;5008386;28;20206;-26
2024/01/01 10:24:52;;;;;;;2.87;2.20;;;;;;;19.77;50.31;96945.63;5009713;28;20222;-27
2024/01/01 10:27:19;;;;;;;2.50;2.30;;;;;;;19.76;50.41;96939.69;5012249;28;20284;-27
2024/01/01 10:29:49;;;;;;;3.17;2.33;;;;;;;19.75;50.47;96937.94;5015179;28;20308;-26
2024/01/01 10:32:16;;;;;;;2.50;2.30;;;;;;;19.74;50.38;96935.34;5015821;28;20202;-27
2024/01/01 10:34:46;;;;;;;2.40;2.20;;;;;;;19.73;50.67;96947.25;5014369;28;20227;-28
2024/01/01 10:37:14;;;;;;;2.60;2.40;;;;;;;19.72;50.67;96937.03;5012537;28;20210;-28
2024/01/01 10:39:42;;;;;;;2.73;2.20;;;;;;;19.70;50.73;96936.09;5015283;28;20313;-27
2024/01/01 10:42:09;;;;;;;2.43;2.23;;;;;;;19.73;50.81;96936.19;4998807;28;20210;-26
2024/01/01 10:44:35;;;;;;;2.17;1.97;;;;;;;19.73;50.75;96933.63;4998020;28;20253;-29
2024/01/01 10:47:06;;;;;;;2.17;1.97;;;;;;;19.70;50.74;96934.44;5010182;28;20623;-28
2024/01/01 10:49:33;;;;;;;2.20;2.00;;;;;;;19.72;50.79;96950.63;5014459;28;20222;-26
2024/01/01 10:52:05;;;;;;;2.30;2.10;;;;;;;19.71;50.70;96946.34;5015554;28;20256;-26
2024/01/01 10:54:34;;;;;;;3.03;2.27;;;;;;;19.71;50.61;96950.56;5013431;28;20201;-29
2024/01/01 10:57:39;;;;;;;2.70;2.50;;;;;;;19.72;50.92;96948.06;5014463;28;20248;-26
2024/01/01 11:00:27;;;;;;;2.30;2.10;;;;;;;19.72;50.65;96945.50;5003907;28;20270;-26
2024/01/01 11:02:54;;;;;;;2.07;1.97;;;;;;;19.73;50.99;96946.38;4999247;28;20194;-27
2024/01/01 11:05:30;;;;;;;2.30;2.07;;;;;;;19.72;50.88;96942.97;4994932;28;20232;-28
2024/01/01 11:08:00;;;;;;;2.30;2.10;;;;;;;19.73;50.75;96951.50;5006116;28;20265;-31
2024/01/01 11:10:36;;;;;;;2.33;2.10;;;;;;;19.74;50.76;96938.78;5014453;28;20202;-27
2024/01/01 11:13:06;;;;;;;3.73;2.00;;;;;;;19.74;50.95;96948.97;5009008;28;20248;-28
2024/01/01 11:15:41;;;;;;;2.17;2.03;;;;;;;19.74;51.07;96941.34;5013965;28;20218;-26
2024/01/01 11:18:17;;;;;;;2.40;2.20;;;;;;;19.76;51.07;96943.91;5010864;28;20209;-26
2024/01/01 11:20:54;;;;;;;3.43;2.20;;;;;;;19.74;50.95;96935.34;5009451;28;20202;-26
2024/01/01 11:23:40;;;;;;;3.63;2.30;;;;;;;19.77;51.08;96938.00;5012826;28;20260;-26
2024/01/01 11:26:22;;;;;;;2.30;2.10;;;;;;;19.76;51.01;96934.59;5003101;28;20285;-26
2024/01/01 11:28:56;;;;;;;2.33;2.10;;;;;;;19.77;50.97;96940.53;5015246;28;20226;-26
2024/01/01 11:31:24;;;;;;;3.30;2.20;;;;;;;19.77;51.05;96935.44;5015007;28;20206;-31
2024/01/01 11:34:05;;;;;;;2.30;2.10;;;;;;;19.76;50.85;96933.72;5011217;28;20203;-26
2024/01/01 11:36:47;;;;;;;2.30;2.10;;;;;;;19.77;51.00;96933.75;5013093;28;20199;-26